createdAt,value
2023-03-31T00:01:10.219Z,13.33
2023-03-31T00:06:19.018Z,13.22
2023-03-31T00:11:22.762Z,13.20
2023-03-31T00:16:25.800Z,13.20
2023-03-31T00:21:30.116Z,13.18
2023-03-31T00:26:33.957Z,13.22
2023-03-31T00:31:36.502Z,13.18
2023-03-31T00:36:47.744Z,13.19
2023-03-31T00:41:50.984Z,13.02
2023-03-31T00:47:10.729Z,12.79
2023-03-31T00:52:23.552Z,12.67
2023-03-31T00:57:28.797Z,12.87
2023-03-31T01:02:31.659Z,12.76
2023-03-31T01:07:46.292Z,12.72
2023-03-31T01:12:52.642Z,12.65
2023-03-31T01:17:57.779Z,12.75
2023-03-31T01:23:27.882Z,12.91
2023-03-31T01:28:55.013Z,12.91
2023-03-31T01:34:22.018Z,12.80
2023-03-31T01:40:02.217Z,12.65
2023-03-31T01:45:26.427Z,12.87
2023-03-31T01:50:46.992Z,12.80
2023-03-31T01:56:08.733Z,12.79
2023-03-31T02:01:31.341Z,12.68
2023-03-31T02:06:45.298Z,12.65
2023-03-31T02:11:50.182Z,12.38
2023-03-31T02:16:58.653Z,12.26
2023-03-31T02:22:04.628Z,12.42
2023-03-31T02:27:27.033Z,12.57
2023-03-31T02:32:44.366Z,12.34
2023-03-31T02:37:49.935Z,12.38
2023-03-31T02:42:52.547Z,12.03
2023-03-31T02:47:55.751Z,12.23
2023-03-31T02:53:07.767Z,12.24
2023-03-31T02:58:50.180Z,12.18
2023-03-31T03:04:13.829Z,12.50
2023-03-31T03:09:22.779Z,12.24
2023-03-31T03:14:36.425Z,12.27
2023-03-31T03:19:41.235Z,12.02
2023-03-31T03:24:43.730Z,11.64
2023-03-31T03:29:47.736Z,11.67
2023-03-31T03:34:50.441Z,11.65
2023-03-31T03:39:53.177Z,11.49
2023-03-31T03:44:55.666Z,11.31
2023-03-31T03:49:58.162Z,11.43
2023-03-31T03:55:02.103Z,11.69
2023-03-31T04:00:10.340Z,11.48
2023-03-31T04:05:13.966Z,11.63
2023-03-31T04:10:16.590Z,11.19
2023-03-31T04:15:19.041Z,11.04
2023-03-31T04:20:22.075Z,10.93
2023-03-31T04:25:24.824Z,11.03
2023-03-31T04:30:31.405Z,11.00
2023-03-31T04:35:49.800Z,11.31
2023-03-31T04:40:53.530Z,11.43
2023-03-31T04:45:56.410Z,11.12
2023-03-31T04:50:58.991Z,10.85
2023-03-31T04:56:02.213Z,10.76
2023-03-31T05:01:08.967Z,10.74
2023-03-31T05:06:11.609Z,10.90
2023-03-31T05:11:14.140Z,10.85
2023-03-31T05:16:17.616Z,10.78
2023-03-31T05:21:21.765Z,10.70
2023-03-31T05:26:25.547Z,10.72
2023-03-31T05:31:28.263Z,10.68
2023-03-31T05:36:32.600Z,10.55
2023-03-31T05:41:35.208Z,10.39
2023-03-31T05:46:37.727Z,10.31
2023-03-31T05:51:40.206Z,10.63
2023-03-31T05:56:42.797Z,10.62
2023-03-31T06:01:45.444Z,10.44
2023-03-31T06:06:50.546Z,10.66
2023-03-31T06:11:53.261Z,10.47
2023-03-31T06:16:57.731Z,10.64
2023-03-31T06:22:01.056Z,10.75
2023-03-31T06:27:04.139Z,10.92
2023-03-31T06:32:06.872Z,11.08
2023-03-31T06:37:09.453Z,10.96
2023-03-31T06:42:12.057Z,10.83
2023-03-31T06:47:16.645Z,10.81
2023-03-31T06:52:19.217Z,10.69
2023-03-31T06:57:21.888Z,10.67
2023-03-31T07:02:24.574Z,10.54
2023-03-31T07:07:27.197Z,10.57
2023-03-31T07:12:32.728Z,10.66
2023-03-31T07:17:37.791Z,10.73
2023-03-31T07:22:41.773Z,10.94
2023-03-31T07:27:44.912Z,10.92
2023-03-31T07:32:49.087Z,10.94
2023-03-31T07:37:52.528Z,11.18
2023-03-31T07:42:55.824Z,12.20
2023-03-31T07:47:58.518Z,13.81
2023-03-31T07:53:01.395Z,13.87
2023-03-31T07:58:04.123Z,13.87
2023-03-31T08:03:07.287Z,13.68
2023-03-31T08:08:09.989Z,15.14
2023-03-31T08:13:12.649Z,15.54
2023-03-31T08:18:15.871Z,16.00
2023-03-31T08:23:18.566Z,16.32
2023-03-31T08:28:21.218Z,17.94
2023-03-31T08:33:23.838Z,19.04
2023-03-31T08:38:27.562Z,19.53
2023-03-31T08:43:34.944Z,19.86
2023-03-31T08:48:45.392Z,18.94
2023-03-31T08:54:08.335Z,20.08
2023-03-31T08:59:39.273Z,21.65
2023-03-31T09:05:11.645Z,22.01
2023-03-31T09:10:20.434Z,19.42
2023-03-31T09:15:41.932Z,19.34
2023-03-31T09:20:52.645Z,21.05
2023-03-31T09:25:58.035Z,21.15
2023-03-31T09:31:04.111Z,19.73
2023-03-31T09:36:17.264Z,17.18
2023-03-31T09:41:20.808Z,16.77
2023-03-31T09:46:35.108Z,16.11
2023-03-31T09:51:41.737Z,18.10
2023-03-31T09:56:44.265Z,17.73
2023-03-31T10:01:49.916Z,20.37
2023-03-31T10:06:54.285Z,19.08
2023-03-31T10:12:08.972Z,21.81
2023-03-31T10:17:17.747Z,22.49
2023-03-31T10:22:23.049Z,23.63
2023-03-31T10:27:29.560Z,25.40
2023-03-31T10:32:41.963Z,21.36
2023-03-31T10:37:44.616Z,24.70
2023-03-31T10:42:58.421Z,20.85
2023-03-31T10:48:01.881Z,22.00
2023-03-31T10:53:16.505Z,21.13
2023-03-31T10:58:37.388Z,20.85
2023-03-31T11:04:16.341Z,19.50
2023-03-31T11:09:43.689Z,18.88
2023-03-31T11:14:54.278Z,17.53
2023-03-31T11:20:13.018Z,16.62
2023-03-31T11:25:38.343Z,13.16
2023-03-31T11:30:48.853Z,12.07
2023-03-31T11:36:14.870Z,11.72
2023-03-31T11:41:30.068Z,11.81
2023-03-31T11:47:02.378Z,11.68
2023-03-31T11:52:11.732Z,11.93
2023-03-31T11:57:42.863Z,12.63
2023-03-31T12:02:54.846Z,12.95
2023-03-31T12:08:11.613Z,17.74
2023-03-31T12:13:23.110Z,17.95
2023-03-31T12:18:29.592Z,15.96
2023-03-31T12:23:38.392Z,16.97
2023-03-31T12:28:43.129Z,16.43
2023-03-31T12:33:54.251Z,18.99
2023-03-31T12:39:13.705Z,17.22
2023-03-31T12:44:37.115Z,18.66
2023-03-31T12:50:04.594Z,18.03
2023-03-31T12:55:37.952Z,18.08
2023-03-31T13:01:15.019Z,18.01
2023-03-31T13:06:29.436Z,17.63
2023-03-31T13:11:37.945Z,17.50
2023-03-31T13:16:40.989Z,16.61
2023-03-31T13:22:01.579Z,15.44
2023-03-31T13:27:30.273Z,14.31
2023-03-31T13:32:33.231Z,13.40
2023-03-31T13:37:54.498Z,13.33
2023-03-31T13:43:15.371Z,13.04
2023-03-31T13:48:36.383Z,11.97
2023-03-31T13:53:57.890Z,11.49
2023-03-31T13:59:59.059Z,11.25
2023-03-31T14:05:31.863Z,11.10
2023-03-31T14:10:37.102Z,11.70
2023-03-31T14:16:08.786Z,16.42
2023-03-31T14:21:38.504Z,18.84
2023-03-31T14:26:53.732Z,20.03
2023-03-31T14:32:40.497Z,16.87
2023-03-31T14:37:43.736Z,17.12
2023-03-31T14:42:50.118Z,17.44
2023-03-31T14:48:16.619Z,17.48
2023-03-31T14:53:24.847Z,16.80
2023-03-31T14:58:35.171Z,16.38
2023-03-31T15:03:44.364Z,16.61
2023-03-31T15:08:47.025Z,17.02
2023-03-31T15:14:04.527Z,17.10
2023-03-31T15:19:16.436Z,15.19
2023-03-31T15:24:19.729Z,15.52
2023-03-31T15:29:38.581Z,15.75
2023-03-31T15:34:43.471Z,15.75
2023-03-31T15:39:48.290Z,15.83
2023-03-31T15:45:21.943Z,14.66
2023-03-31T15:50:25.006Z,14.49
2023-03-31T15:55:31.497Z,14.43
2023-03-31T16:01:05.239Z,13.91
2023-03-31T16:06:24.200Z,13.83
2023-03-31T16:11:56.350Z,13.85
2023-03-31T16:17:14.538Z,14.00
2023-03-31T16:22:21.894Z,13.64
2023-03-31T16:27:24.760Z,13.42
2023-03-31T16:32:27.443Z,13.37
2023-03-31T16:37:30.144Z,13.11
2023-03-31T16:42:36.003Z,12.79
2023-03-31T16:47:38.697Z,12.57
2023-03-31T16:52:41.361Z,12.50
2023-03-31T16:57:43.882Z,12.18
2023-03-31T17:02:46.575Z,11.91
2023-03-31T17:07:49.500Z,11.88
2023-03-31T17:12:52.447Z,12.01
2023-03-31T17:17:55.176Z,11.94
2023-03-31T17:22:58.728Z,12.07
2023-03-31T17:28:02.263Z,11.93
2023-03-31T17:33:05.605Z,11.90
2023-03-31T17:38:09.933Z,12.02
2023-03-31T17:43:14.178Z,12.17
2023-03-31T17:48:16.693Z,11.97
2023-03-31T17:53:19.233Z,12.13
2023-03-31T17:58:22.940Z,12.20
2023-03-31T18:03:28.945Z,12.28
2023-03-31T18:08:32.305Z,12.48
2023-03-31T18:13:36.537Z,12.83
2023-03-31T18:18:39.826Z,13.05
2023-03-31T18:23:42.435Z,13.07
2023-03-31T18:28:45.281Z,12.77
2023-03-31T18:33:48.300Z,12.01
2023-03-31T18:38:51.634Z,11.84
2023-03-31T18:43:54.363Z,11.77
2023-03-31T18:48:56.876Z,11.59
2023-03-31T18:53:59.595Z,11.54
2023-03-31T18:59:05.046Z,11.43
2023-03-31T19:04:08.969Z,11.34
2023-03-31T19:09:11.818Z,11.20
2023-03-31T19:14:14.329Z,11.37
2023-03-31T19:19:17.000Z,11.45
2023-03-31T19:24:20.109Z,11.58
2023-03-31T19:29:22.654Z,11.28
2023-03-31T19:34:25.205Z,11.54
2023-03-31T19:39:28.404Z,11.67
2023-03-31T19:44:31.352Z,11.48
2023-03-31T19:49:34.149Z,11.46
2023-03-31T19:54:37.005Z,11.37
2023-03-31T19:59:51.852Z,11.61
2023-03-31T20:04:54.392Z,11.53
2023-03-31T20:09:56.909Z,11.39
2023-03-31T20:14:59.473Z,11.22
2023-03-31T20:20:02.872Z,11.25
2023-03-31T20:25:06.700Z,11.46
2023-03-31T20:30:10.324Z,11.26
2023-03-31T20:35:13.740Z,11.08
2023-03-31T20:40:16.310Z,11.14
2023-03-31T20:45:20.764Z,10.91
2023-03-31T20:50:23.341Z,10.78
2023-03-31T20:55:25.914Z,10.99
2023-03-31T21:00:28.525Z,11.20
2023-03-31T21:05:31.582Z,11.16
2023-03-31T21:10:40.991Z,10.78
2023-03-31T21:15:50.446Z,10.86
2023-03-31T21:20:55.992Z,11.29
2023-03-31T21:26:01.636Z,11.24
2023-03-31T21:31:07.116Z,11.19
2023-03-31T21:36:12.902Z,10.77
2023-03-31T21:41:22.775Z,10.62
2023-03-31T21:46:28.231Z,10.69
2023-03-31T21:51:31.178Z,10.59
2023-03-31T21:56:34.340Z,10.44
2023-03-31T22:01:37.294Z,10.65
2023-03-31T22:06:39.906Z,10.75
2023-03-31T22:11:42.514Z,10.60
2023-03-31T22:16:45.043Z,10.50
2023-03-31T22:21:48.689Z,10.35
2023-03-31T22:27:06.917Z,10.41
2023-03-31T22:32:09.410Z,10.15
2023-03-31T22:37:11.965Z,10.15
2023-03-31T22:42:14.521Z,10.08
2023-03-31T22:47:17.705Z,10.14
2023-03-31T22:52:20.343Z,9.92
2023-03-31T22:57:22.996Z,9.77
2023-03-31T23:02:25.624Z,9.66
2023-03-31T23:07:29.492Z,9.86
2023-03-31T23:12:35.169Z,9.75
2023-03-31T23:17:37.802Z,9.75
2023-03-31T23:22:40.572Z,9.86
2023-03-31T23:27:43.093Z,9.78
2023-03-31T23:32:45.787Z,9.90
2023-03-31T23:37:48.354Z,9.92
2023-03-31T23:42:51.097Z,10.00
2023-03-31T23:47:53.664Z,9.76
2023-03-31T23:52:59.494Z,10.02
2023-03-31T23:58:02.880Z,9.99
